Main page
METAR-TAF:

METAR-TAF

Airports :

Hohenfels, Germany

latitude: 49-13N, longitude: 011-50E, elevation: 442 m

Current weather observation

The report was made 11 minutes ago, at 18:56 UTC
Calm wind
Temperature 1°C
Humidity 100%
Pressure 1017 hPa
Visibility: 9000 m
Overcast at a height of 1600 ft

METAR: ETIH 211856Z AUTO 00000KT 9000 M OVC016 01/01 A3004 RMK AO2 SLP199 T00070007 $

Time: 20:07 (19:07 UTC)


TAF: missing

Weather observations and forecasts of more than 4000 airports (METAR and TAF reports).

The available stations are represented by yellow and red dots on the map.

Hover mouse over dot to see the name of the station.

Then click to see weather observations and forecasts.

To change the map : click on the green buttons with a black cross to zoom in, on the green button with a dash to zoom out, or on the green arrows for adjacent maps.


METAR-TAF: